Time;durP1;ratioP1;P1;durP2;ratioP2;P2;SDS_P1;SDS_P2;PMS_P1;PMS_P2;Temp;Humidity;BMP_temperature;BMP_pressure;BME280_temperature;BME280_humidity;BME280_pressure;Samples;Min_cycle;Max_cycle;Signal;HPM_P1;HPM_P2
2023/11/06 00:02:17;;;;;;;8.40;2.75;;;10.00;99.90;;;;;;5008493;28;20501;-62
2023/11/06 00:04:42;;;;;;;9.45;3.40;;;10.00;99.90;;;;;;5003466;28;20019;-61
2023/11/06 00:07:08;;;;;;;10.48;3.08;;;10.00;99.90;;;;;;5001557;28;20106;-61
2023/11/06 00:09:33;;;;;;;9.00;2.85;;;10.10;99.90;;;;;;5008699;28;20021;-63
2023/11/06 00:11:59;;;;;;;9.45;2.88;;;10.10;99.90;;;;;;5009179;28;20482;-62
2023/11/06 00:14:24;;;;;;;8.32;2.58;;;10.10;99.90;;;;;;5008263;28;20153;-62
2023/11/06 00:16:53;;;;;;;7.70;2.70;;;10.10;99.90;;;;;;5008916;28;20257;-61
2023/11/06 00:19:19;;;;;;;8.07;3.05;;;10.10;99.90;;;;;;4991199;28;20038;-62
2023/11/06 00:21:44;;;;;;;8.60;2.60;;;10.10;99.90;;;;;;5007129;28;20018;-61
2023/11/06 00:24:10;;;;;;;10.85;2.47;;;10.10;99.90;;;;;;5007969;28;20430;-62
2023/11/06 00:26:36;;;;;;;7.13;2.53;;;10.10;99.90;;;;;;5007920;28;20061;-62
2023/11/06 00:29:01;;;;;;;8.85;2.85;;;10.10;99.90;;;;;;5008615;28;20026;-62
2023/11/06 00:31:27;;;;;;;8.93;3.05;;;10.10;99.90;;;;;;5006695;28;20018;-62
2023/11/06 00:33:53;;;;;;;8.18;2.88;;;10.10;99.90;;;;;;5008008;28;20026;-62
2023/11/06 00:36:20;;;;;;;6.38;2.90;;;10.10;99.90;;;;;;5007976;28;20018;-62
2023/11/06 00:38:45;;;;;;;11.20;2.83;;;10.10;99.90;;;;;;5008342;28;20117;-62
2023/11/06 00:41:12;;;;;;;5.25;3.35;;;10.10;99.90;;;;;;5008566;28;20138;-62
2023/11/06 00:43:38;;;;;;;5.07;2.60;;;10.10;99.90;;;;;;5008271;28;20033;-61
2023/11/06 00:46:03;;;;;;;9.05;3.63;;;10.00;99.90;;;;;;5003418;28;20443;-62
2023/11/06 00:48:29;;;;;;;8.13;3.10;;;10.00;99.90;;;;;;4999924;28;20040;-62
2023/11/06 00:50:54;;;;;;;5.13;2.60;;;10.10;99.90;;;;;;5003921;28;20034;-62
2023/11/06 00:53:20;;;;;;;5.40;2.58;;;10.00;99.90;;;;;;5007837;28;20046;-61
2023/11/06 00:55:45;;;;;;;7.35;3.40;;;10.10;99.90;;;;;;5007695;28;20613;-61
2023/11/06 00:58:11;;;;;;;5.95;2.72;;;10.10;99.90;;;;;;5008018;28;20061;-62
2023/11/06 01:00:37;;;;;;;7.10;2.72;;;10.10;99.90;;;;;;5008277;28;20243;-61
2023/11/06 01:03:03;;;;;;;10.13;3.38;;;10.20;99.90;;;;;;5008281;28;20375;-62
2023/11/06 01:05:31;;;;;;;5.15;2.72;;;10.20;99.90;;;;;;5007851;28;20045;-62
2023/11/06 01:07:57;;;;;;;14.57;2.75;;;10.10;99.90;;;;;;5007831;28;20022;-62
2023/11/06 01:10:25;;;;;;;9.27;2.90;;;10.10;99.90;;;;;;5005721;28;20025;-62
2023/11/06 01:12:51;;;;;;;5.90;2.35;;;10.10;99.90;;;;;;5008022;28;20025;-62
2023/11/06 01:15:17;;;;;;;13.07;3.47;;;10.10;99.90;;;;;;5007503;28;20033;-62
2023/11/06 01:17:43;;;;;;;7.90;2.85;;;10.10;99.90;;;;;;5003232;28;20384;-61
2023/11/06 01:20:10;;;;;;;6.90;2.70;;;10.10;99.90;;;;;;5005051;28;20037;-61
2023/11/06 01:22:36;;;;;;;6.80;3.10;;;10.00;99.90;;;;;;5007846;28;20415;-61
2023/11/06 01:25:02;;;;;;;14.23;3.25;;;10.00;99.90;;;;;;5002803;28;20037;-61
2023/11/06 01:27:28;;;;;;;7.47;2.65;;;9.90;99.90;;;;;;5005905;28;20148;-62
2023/11/06 01:29:53;;;;;;;8.70;3.22;;;9.90;99.90;;;;;;5007876;28;20029;-62
2023/11/06 01:32:20;;;;;;;14.77;2.95;;;10.00;99.90;;;;;;5008934;28;20376;-62
2023/11/06 01:34:46;;;;;;;10.40;2.80;;;9.90;99.90;;;;;;5010988;28;20068;-61
2023/11/06 01:37:12;;;;;;;8.77;2.53;;;9.90;99.90;;;;;;5010995;28;20495;-62
2023/11/06 01:39:37;;;;;;;9.80;3.65;;;9.90;99.90;;;;;;5011316;28;20080;-61
2023/11/06 01:42:03;;;;;;;11.60;2.50;;;9.90;99.90;;;;;;5011154;28;20026;-62
2023/11/06 01:44:28;;;;;;;9.40;3.67;;;9.90;99.90;;;;;;5010779;28;20080;-61
2023/11/06 01:46:54;;;;;;;6.95;2.55;;;9.90;99.90;;;;;;5011721;28;20471;-62
2023/11/06 01:49:20;;;;;;;16.30;3.08;;;9.90;99.90;;;;;;5011454;28;20036;-61
2023/11/06 01:51:47;;;;;;;7.50;2.88;;;9.90;99.90;;;;;;5006384;28;20419;-61
2023/11/06 01:54:14;;;;;;;10.18;2.63;;;9.90;99.90;;;;;;5008351;28;20533;-62
2023/11/06 01:56:40;;;;;;;7.22;2.30;;;9.80;99.90;;;;;;5005131;28;20065;-61
2023/11/06 01:59:06;;;;;;;11.00;2.25;;;9.80;99.90;;;;;;5009052;28;20446;-61
2023/11/06 02:01:37;;;;;;;7.85;2.47;;;9.80;99.90;;;;;;5005054;28;20114;-61
2023/11/06 02:04:06;;;;;;;12.15;2.80;;;9.80;99.90;;;;;;5002088;28;20034;-61
2023/11/06 02:06:33;;;;;;;5.82;2.10;;;9.80;99.90;;;;;;5005205;28;20168;-61
2023/11/06 02:08:58;;;;;;;9.73;2.50;;;9.70;99.90;;;;;;4999606;28;20018;-61
2023/11/06 02:11:24;;;;;;;9.40;2.55;;;9.80;99.90;;;;;;4997894;28;20980;-61
2023/11/06 02:13:49;;;;;;;7.13;2.15;;;9.70;99.90;;;;;;5003535;28;20038;-61
2023/11/06 02:16:15;;;;;;;10.63;2.75;;;9.70;99.90;;;;;;5001332;28;20062;-61
2023/11/06 02:18:40;;;;;;;8.25;3.00;;;9.70;99.90;;;;;;4999711;28;20080;-61
2023/11/06 02:21:07;;;;;;;7.85;2.95;;;9.70;99.90;;;;;;5009159;28;20044;-61
2023/11/06 02:23:33;;;;;;;5.80;2.53;;;9.70;99.90;;;;;;5005465;28;20045;-61
2023/11/06 02:25:58;;;;;;;4.57;2.33;;;9.80;99.90;;;;;;5005523;28;20026;-61
2023/11/06 02:28:24;;;;;;;11.27;2.22;;;9.80;99.90;;;;;;5010147;28;20117;-61
2023/11/06 02:30:51;;;;;;;6.95;1.90;;;9.80;99.90;;;;;;5010090;28;20048;-61
2023/11/06 02:33:18;;;;;;;12.23;2.47;;;9.90;99.90;;;;;;5006860;28;20022;-61
2023/11/06 02:35:43;;;;;;;4.43;2.17;;;9.90;99.90;;;;;;5010131;28;20022;-61
2023/11/06 02:38:09;;;;;;;5.85;2.28;;;9.90;99.90;;;;;;5010574;28;20424;-61
2023/11/06 02:40:34;;;;;;;4.90;2.95;;;9.90;99.90;;;;;;5005431;28;20049;-61
2023/11/06 02:43:00;;;;;;;7.20;2.42;;;9.90;99.90;;;;;;5000998;28;20432;-61
2023/11/06 02:45:25;;;;;;;6.43;2.35;;;9.90;99.90;;;;;;5008877;28;20038;-61
2023/11/06 02:47:50;;;;;;;7.78;2.60;;;10.00;99.90;;;;;;5009821;28;20058;-61
2023/11/06 02:50:16;;;;;;;8.45;2.15;;;10.00;99.90;;;;;;5009661;28;20026;-60
2023/11/06 02:52:42;;;;;;;12.20;2.20;;;10.00;99.90;;;;;;5004862;28;20552;-61
2023/11/06 02:55:08;;;;;;;5.07;2.08;;;10.10;99.90;;;;;;5006152;28;20395;-61
2023/11/06 02:57:34;;;;;;;7.00;1.85;;;10.10;99.90;;;;;;5009686;28;20041;-61
2023/11/06 03:00:00;;;;;;;8.43;2.17;;;10.10;99.90;;;;;;5009863;28;20525;-61
2023/11/06 03:02:27;;;;;;;8.50;2.25;;;10.10;99.90;;;;;;5008350;28;20061;-61
2023/11/06 03:04:53;;;;;;;6.82;2.65;;;10.10;99.90;;;;;;5009595;28;20065;-61
2023/11/06 03:07:18;;;;;;;9.38;2.28;;;10.20;99.90;;;;;;5006887;28;20037;-61
2023/11/06 03:09:45;;;;;;;7.30;2.10;;;10.20;99.90;;;;;;5009579;28;20468;-61
2023/11/06 03:12:11;;;;;;;9.77;2.78;;;10.20;99.90;;;;;;5009527;28;20109;-61
2023/11/06 03:14:36;;;;;;;5.15;2.10;;;10.30;99.90;;;;;;5008952;28;20030;-61
2023/11/06 03:17:02;;;;;;;7.78;3.17;;;10.30;99.90;;;;;;5009317;28;20026;-61
2023/11/06 03:19:29;;;;;;;3.72;2.20;;;10.30;99.90;;;;;;5009355;28;20325;-61
2023/11/06 03:21:54;;;;;;;6.68;3.17;;;10.30;99.90;;;;;;5009347;28;20352;-61
2023/11/06 03:24:20;;;;;;;9.23;2.63;;;10.40;99.90;;;;;;5008922;28;20034;-61
2023/11/06 03:26:45;;;;;;;4.65;2.28;;;10.40;99.90;;;;;;5009011;28;20033;-61
2023/11/06 03:29:11;;;;;;;9.80;2.97;;;10.40;99.90;;;;;;5007855;28;20026;-61
2023/11/06 03:31:36;;;;;;;13.73;3.25;;;10.40;99.90;;;;;;5008870;28;20041;-61
2023/11/06 03:34:03;;;;;;;8.45;2.35;;;10.50;99.90;;;;;;5008467;28;20034;-61
2023/11/06 03:36:28;;;;;;;9.90;3.10;;;10.50;99.90;;;;;;5008527;28;20087;-61
2023/11/06 03:38:54;;;;;;;14.10;3.55;;;10.50;99.90;;;;;;5008774;28;20038;-61
2023/11/06 03:41:20;;;;;;;9.32;3.03;;;10.50;99.90;;;;;;5008615;28;20439;-61
2023/11/06 03:43:51;;;;;;;9.60;2.42;;;10.40;99.90;;;;;;5008830;28;20026;-60
2023/11/06 03:46:17;;;;;;;9.65;2.63;;;10.40;99.90;;;;;;5008821;28;20026;-60
2023/11/06 03:48:43;;;;;;;15.82;2.80;;;10.40;99.90;;;;;;5009074;28;20034;-60
2023/11/06 03:51:08;;;;;;;6.97;2.40;;;10.40;99.90;;;;;;5008909;28;20033;-61
2023/11/06 03:53:34;;;;;;;8.27;2.20;;;10.40;99.90;;;;;;5008487;28;20342;-60
2023/11/06 03:55:59;;;;;;;13.30;2.67;;;10.40;99.90;;;;;;5008035;28;20040;-60
2023/11/06 03:58:25;;;;;;;6.32;2.33;;;10.30;99.90;;;;;;5006652;28;20049;-60
2023/11/06 04:00:50;;;;;;;6.80;2.30;;;10.30;99.90;;;;;;5008522;28;20458;-60
2023/11/06 04:03:16;;;;;;;8.02;2.08;;;10.30;99.90;;;;;;5008781;28;20038;-61
2023/11/06 04:05:42;;;;;;;8.70;2.42;;;10.30;99.90;;;;;;5008430;28;20030;-61
2023/11/06 04:08:09;;;;;;;8.90;2.10;;;10.30;99.90;;;;;;5008487;28;20310;-61
2023/11/06 04:10:35;;;;;;;5.22;2.13;;;10.30;99.90;;;;;;5008689;28;20022;-61
2023/11/06 04:13:00;;;;;;;5.95;2.20;;;10.30;99.90;;;;;;5008548;28;20030;-61
2023/11/06 04:15:26;;;;;;;12.75;2.70;;;10.30;99.90;;;;;;5008328;28;20372;-61
2023/11/06 04:17:51;;;;;;;6.22;2.17;;;10.30;99.90;;;;;;5009112;28;20117;-61
2023/11/06 04:20:17;;;;;;;8.13;2.75;;;10.30;99.90;;;;;;5008814;28;20088;-60
2023/11/06 04:22:43;;;;;;;5.78;2.13;;;10.30;99.90;;;;;;5003936;28;20452;-60
2023/11/06 04:25:08;;;;;;;3.38;1.75;;;10.30;99.90;;;;;;5005124;28;20033;-61
2023/11/06 04:27:34;;;;;;;8.30;2.22;;;10.30;99.90;;;;;;5008488;28;20055;-61
2023/11/06 04:29:59;;;;;;;10.02;2.25;;;10.30;99.90;;;;;;5008563;28;20026;-61
2023/11/06 04:32:25;;;;;;;8.25;2.90;;;10.30;99.90;;;;;;5001215;28;20073;-61
2023/11/06 04:34:50;;;;;;;5.82;2.42;;;10.30;99.90;;;;;;4998858;28;20018;-61
2023/11/06 04:37:16;;;;;;;6.63;2.13;;;10.30;99.90;;;;;;5000665;28;20018;-61
2023/11/06 04:39:42;;;;;;;14.57;2.10;;;10.30;99.90;;;;;;5000320;28;20022;-61
2023/11/06 04:42:09;;;;;;;4.85;1.85;;;10.30;99.90;;;;;;4994058;28;20022;-61
2023/11/06 04:44:35;;;;;;;9.65;2.22;;;10.30;99.90;;;;;;5000335;28;20192;-61
2023/11/06 04:47:01;;;;;;;7.75;1.77;;;10.40;99.90;;;;;;5001158;28;20278;-61
2023/11/06 04:49:26;;;;;;;4.20;1.60;;;10.40;99.90;;;;;;5000323;28;20109;-61
2023/11/06 04:51:52;;;;;;;8.35;1.80;;;10.40;99.90;;;;;;5000431;28;20057;-61
2023/11/06 04:54:17;;;;;;;5.22;1.90;;;10.40;99.90;;;;;;5001731;28;20033;-61
2023/11/06 04:56:43;;;;;;;8.02;2.20;;;10.40;99.90;;;;;;5002552;28;20050;-61
2023/11/06 04:59:09;;;;;;;9.43;1.95;;;10.40;99.90;;;;;;4997229;28;20026;-61
2023/11/06 05:01:38;;;;;;;5.07;1.95;;;10.40;99.90;;;;;;5003794;28;20033;-61
2023/11/06 05:04:04;;;;;;;2.80;1.27;;;10.40;99.90;;;;;;5004562;28;20077;-61
2023/11/06 05:06:29;;;;;;;6.72;1.73;;;10.40;99.90;;;;;;5008181;28;20418;-60
2023/11/06 05:08:55;;;;;;;7.90;2.67;;;10.40;99.90;;;;;;5012034;28;20029;-61
2023/11/06 05:11:20;;;;;;;4.85;1.33;;;10.40;99.90;;;;;;5011940;28;20128;-61
2023/11/06 05:13:47;;;;;;;4.75;1.75;;;10.40;99.90;;;;;;5011489;28;20022;-61
2023/11/06 05:16:13;;;;;;;5.28;1.95;;;10.30;99.90;;;;;;5011182;28;20062;-61
2023/11/06 05:18:39;;;;;;;5.43;2.47;;;10.30;99.90;;;;;;5011450;28;20033;-61
2023/11/06 05:21:05;;;;;;;8.50;1.88;;;10.40;99.90;;;;;;5011342;28;20033;-61
2023/11/06 05:23:31;;;;;;;8.32;2.00;;;10.30;99.90;;;;;;5006785;28;20535;-61
2023/11/06 05:25:56;;;;;;;8.15;2.03;;;10.30;99.90;;;;;;5006338;28;20022;-61
2023/11/06 05:28:22;;;;;;;10.93;2.08;;;10.30;99.90;;;;;;5011109;28;20029;-61
2023/11/06 05:30:47;;;;;;;8.27;2.35;;;10.30;99.90;;;;;;5011577;28;20033;-61
2023/11/06 05:33:13;;;;;;;7.50;2.42;;;10.30;99.90;;;;;;5007163;28;20404;-61
2023/11/06 05:35:38;;;;;;;6.07;1.85;;;10.30;99.90;;;;;;5010696;28;20176;-62
2023/11/06 05:38:04;;;;;;;5.50;1.30;;;10.30;99.90;;;;;;5006367;28;20033;-61
2023/11/06 05:40:29;;;;;;;4.97;2.00;;;10.30;99.90;;;;;;5006288;28;20022;-61
2023/11/06 05:42:55;;;;;;;7.93;1.90;;;10.40;99.90;;;;;;5006497;28;20037;-61
2023/11/06 05:45:20;;;;;;;5.50;1.48;;;10.40;99.90;;;;;;5010519;28;20034;-61
2023/11/06 05:47:46;;;;;;;5.88;1.65;;;10.40;99.90;;;;;;5011300;28;20212;-61
2023/11/06 05:50:11;;;;;;;8.73;1.80;;;10.40;99.90;;;;;;5011036;28;20058;-61
2023/11/06 05:52:39;;;;;;;4.18;1.70;;;10.40;99.90;;;;;;5011164;28;20104;-61
2023/11/06 05:55:05;;;;;;;8.75;1.77;;;10.40;99.90;;;;;;5010486;28;20040;-61
2023/11/06 05:57:31;;;;;;;6.75;1.70;;;10.40;99.90;;;;;;5001375;28;20399;-59
2023/11/06 05:59:57;;;;;;;5.97;2.08;;;10.40;99.90;;;;;;4997743;28;20022;-60
2023/11/06 06:02:22;;;;;;;1.88;1.15;;;10.40;99.90;;;;;;5000584;28;20033;-60
2023/11/06 06:04:48;;;;;;;4.63;2.10;;;10.50;99.90;;;;;;4999822;28;20037;-59
2023/11/06 06:07:13;;;;;;;5.53;1.60;;;10.50;99.90;;;;;;4998762;28;20034;-62
2023/11/06 06:09:41;;;;;;;6.20;1.60;;;10.50;99.90;;;;;;4997373;28;20399;-60
2023/11/06 06:12:07;;;;;;;4.50;2.13;;;10.40;99.90;;;;;;4999860;28;20329;-60
2023/11/06 06:14:33;;;;;;;2.33;1.40;;;10.40;99.90;;;;;;5003388;28;20491;-60
2023/11/06 06:16:58;;;;;;;4.82;1.73;;;10.40;99.90;;;;;;5000401;28;20160;-60
2023/11/06 06:19:24;;;;;;;6.20;1.70;;;10.40;99.90;;;;;;4995863;28;20026;-60
2023/11/06 06:21:49;;;;;;;5.93;1.58;;;10.40;99.90;;;;;;5005044;28;20031;-60
2023/11/06 06:24:16;;;;;;;4.68;1.38;;;10.40;99.90;;;;;;5001319;28;20448;-59
2023/11/06 06:26:42;;;;;;;5.15;1.90;;;10.30;99.90;;;;;;4999090;28;20019;-60
2023/11/06 06:29:08;;;;;;;6.47;1.75;;;10.30;99.90;;;;;;5008459;28;20681;-60
2023/11/06 06:31:34;;;;;;;7.30;1.95;;;10.30;99.90;;;;;;5010347;28;20096;-63
2023/11/06 06:33:59;;;;;;;7.93;1.60;;;10.30;99.90;;;;;;5010373;28;20461;-63
2023/11/06 06:36:25;;;;;;;5.03;2.22;;;10.30;99.90;;;;;;5010449;28;20456;-63
2023/11/06 06:38:51;;;;;;;6.47;2.05;;;10.30;99.90;;;;;;5010510;28;20038;-63
2023/11/06 06:41:16;;;;;;;5.10;1.60;;;10.30;99.90;;;;;;5006949;28;20109;-62
2023/11/06 06:43:42;;;;;;;6.03;2.13;;;10.30;99.90;;;;;;5000881;28;20334;-62
2023/11/06 06:46:09;;;;;;;4.60;2.22;;;10.40;99.90;;;;;;5002805;28;20459;-63
2023/11/06 06:48:34;;;;;;;8.10;1.63;;;10.40;99.90;;;;;;5002110;28;20064;-63
2023/11/06 06:51:00;;;;;;;6.10;1.67;;;10.40;99.90;;;;;;5002758;28;20046;-62
2023/11/06 06:53:25;;;;;;;9.52;1.67;;;10.40;99.90;;;;;;5002610;28;20407;-62
2023/11/06 06:55:51;;;;;;;3.80;1.70;;;10.50;99.90;;;;;;5003487;28;20025;-62
2023/11/06 06:58:16;;;;;;;3.92;1.67;;;10.40;99.90;;;;;;5008877;28;20040;-62
2023/11/06 07:00:43;;;;;;;5.70;1.80;;;10.40;99.90;;;;;;4997199;28;20023;-62
2023/11/06 07:03:09;;;;;;;3.72;1.70;;;10.50;99.90;;;;;;4990480;28;20383;-60
2023/11/06 07:05:35;;;;;;;7.13;1.90;;;10.40;99.90;;;;;;4997203;28;20026;-62
2023/11/06 07:08:01;;;;;;;3.67;1.50;;;10.50;99.90;;;;;;5005643;28;20022;-62
2023/11/06 07:10:26;;;;;;;4.47;1.50;;;10.50;99.90;;;;;;5009378;28;20025;-62
2023/11/06 07:12:52;;;;;;;5.97;2.00;;;10.60;99.90;;;;;;5009474;28;20104;-62
2023/11/06 07:15:18;;;;;;;3.55;1.60;;;10.60;99.90;;;;;;5009021;28;20377;-62
2023/11/06 07:17:43;;;;;;;4.05;1.65;;;10.60;99.90;;;;;;5009491;28;20149;-62
2023/11/06 07:20:15;;;;;;;4.70;1.63;;;10.60;99.90;;;;;;5009466;28;20691;-62
2023/11/06 07:22:41;;;;;;;3.75;1.65;;;10.60;99.90;;;;;;5009315;28;20025;-62
2023/11/06 07:25:07;;;;;;;4.75;2.00;;;10.60;99.90;;;;;;5008696;28;20028;-62
2023/11/06 07:27:33;;;;;;;7.60;2.40;;;10.60;99.90;;;;;;5004776;28;20239;-61
2023/11/06 07:29:59;;;;;;;4.93;2.17;;;10.60;99.90;;;;;;5004913;28;20033;-62
2023/11/06 07:32:24;;;;;;;4.10;1.77;;;10.60;99.90;;;;;;5009399;28;20030;-61
2023/11/06 07:34:50;;;;;;;8.65;1.80;;;10.60;99.90;;;;;;5008774;28;20069;-61
2023/11/06 07:37:16;;;;;;;6.07;2.22;;;10.60;99.90;;;;;;5009244;28;20053;-61
2023/11/06 07:39:42;;;;;;;6.95;2.50;;;10.60;99.90;;;;;;5009080;28;20423;-62
2023/11/06 07:42:11;;;;;;;5.68;2.03;;;10.60;99.90;;;;;;5009018;28;20022;-61
2023/11/06 07:44:36;;;;;;;5.05;2.15;;;10.60;99.90;;;;;;5008611;28;20037;-62
2023/11/06 07:47:03;;;;;;;3.47;2.05;;;10.60;99.90;;;;;;5009137;28;20042;-61
2023/11/06 07:49:28;;;;;;;6.47;2.38;;;10.70;99.90;;;;;;5006583;28;20030;-62
2023/11/06 07:51:54;;;;;;;5.22;2.28;;;10.70;99.90;;;;;;5003413;28;20530;-62
2023/11/06 07:54:19;;;;;;;6.18;2.30;;;10.80;99.90;;;;;;5008482;28;20105;-62
2023/11/06 07:56:48;;;;;;;6.45;2.05;;;10.80;99.90;;;;;;5004655;28;20379;-62
2023/11/06 07:59:14;;;;;;;6.80;2.47;;;10.90;99.90;;;;;;5007110;28;20092;-63
2023/11/06 08:01:39;;;;;;;5.80;2.47;;;10.90;99.90;;;;;;5009114;28;20029;-61
2023/11/06 08:04:07;;;;;;;6.00;2.13;;;11.00;99.90;;;;;;5004228;28;20121;-61
2023/11/06 08:06:33;;;;;;;5.10;2.33;;;11.10;99.90;;;;;;5009067;28;20037;-61
2023/11/06 08:08:59;;;;;;;6.90;2.22;;;11.20;99.90;;;;;;5004325;28;20046;-61
2023/11/06 08:11:24;;;;;;;9.48;2.50;;;11.20;99.90;;;;;;4995542;28;20026;-61
2023/11/06 08:13:50;;;;;;;4.55;2.15;;;11.30;99.90;;;;;;4995465;28;20518;-61
2023/11/06 08:16:16;;;;;;;6.57;2.40;;;11.40;99.90;;;;;;4995768;28;20094;-61
2023/11/06 08:18:42;;;;;;;4.60;2.00;;;11.50;99.90;;;;;;5006444;28;20026;-61
2023/11/06 08:21:09;;;;;;;8.90;2.22;;;11.50;99.90;;;;;;5008177;28;20044;-61
2023/11/06 08:23:35;;;;;;;4.63;2.13;;;11.60;99.90;;;;;;4995155;28;20025;-61
2023/11/06 08:26:00;;;;;;;14.18;2.28;;;11.70;99.90;;;;;;4999260;28;20025;-61
2023/11/06 08:28:26;;;;;;;5.63;1.60;;;11.80;99.90;;;;;;4998724;28;20395;-61
2023/11/06 08:30:52;;;;;;;6.53;2.40;;;11.80;99.90;;;;;;4999034;28;20034;-61
2023/11/06 08:33:18;;;;;;;7.60;2.13;;;11.80;99.90;;;;;;4999124;28;20077;-61
2023/11/06 08:35:45;;;;;;;5.88;2.17;;;11.70;99.90;;;;;;4997433;28;20026;-61
2023/11/06 08:38:11;;;;;;;9.48;2.03;;;11.70;99.90;;;;;;4999157;28;20029;-61
2023/11/06 08:40:36;;;;;;;4.03;2.00;;;11.70;99.90;;;;;;4998023;28;20033;-61
2023/11/06 08:43:04;;;;;;;4.95;2.10;;;11.60;99.90;;;;;;5006668;28;20017;-61
2023/11/06 08:45:29;;;;;;;4.20;1.90;;;11.60;99.90;;;;;;5011674;28;20034;-61
2023/11/06 08:47:55;;;;;;;5.72;2.10;;;11.60;99.90;;;;;;5012082;28;20037;-61
2023/11/06 08:50:20;;;;;;;7.53;2.05;;;11.60;99.90;;;;;;5011843;28;20025;-61
2023/11/06 08:52:46;;;;;;;4.03;2.08;;;11.60;99.90;;;;;;5011723;28;20512;-61
2023/11/06 08:55:11;;;;;;;6.95;2.03;;;11.60;99.90;;;;;;5007177;28;20036;-61
2023/11/06 08:57:38;;;;;;;8.60;2.92;;;11.60;99.90;;;;;;5011604;28;20211;-61
2023/11/06 09:00:08;;;;;;;5.97;1.70;;;11.60;99.90;;;;;;5011500;28;20026;-61
2023/11/06 09:02:34;;;;;;;9.05;1.67;;;11.60;99.90;;;;;;5011436;28;20030;-61
2023/11/06 09:04:59;;;;;;;4.63;1.50;;;11.60;99.90;;;;;;5026227;28;20084;-61
2023/11/06 09:07:26;;;;;;;4.70;1.80;;;11.60;99.90;;;;;;5009837;28;20356;-61
2023/11/06 09:09:52;;;;;;;10.00;2.42;;;11.60;99.90;;;;;;5011609;28;20072;-61
2023/11/06 09:12:17;;;;;;;6.85;1.77;;;11.70;99.90;;;;;;5011451;28;20022;-61
2023/11/06 09:14:43;;;;;;;11.73;2.25;;;11.70;99.90;;;;;;5010930;28;20026;-61
2023/11/06 09:17:08;;;;;;;9.23;2.38;;;11.70;99.90;;;;;;5010986;28;20026;-61
2023/11/06 09:19:34;;;;;;;7.75;2.05;;;11.80;99.90;;;;;;5011209;28;20421;-61
2023/11/06 09:22:00;;;;;;;8.43;1.65;;;12.00;99.90;;;;;;5005450;28;20026;-62
2023/11/06 09:24:28;;;;;;;10.52;1.90;;;11.90;99.90;;;;;;5001810;28;20441;-61
2023/11/06 09:26:54;;;;;;;6.45;1.67;;;12.00;99.90;;;;;;5002560;28;20290;-61
2023/11/06 09:29:20;;;;;;;6.45;1.90;;;12.10;99.90;;;;;;5002461;28;20523;-61
2023/11/06 09:31:46;;;;;;;7.85;1.63;;;12.20;99.90;;;;;;5001358;28;20464;-61
2023/11/06 09:34:11;;;;;;;7.72;1.73;;;12.20;99.90;;;;;;5001673;28;20018;-61
2023/11/06 09:36:37;;;;;;;5.55;2.10;;;12.10;99.90;;;;;;5000421;28;20010;-61
2023/11/06 09:39:04;;;;;;;7.45;1.77;;;12.00;99.90;;;;;;5002423;28;20033;-61
2023/11/06 09:41:29;;;;;;;6.35;1.58;;;12.00;99.90;;;;;;5001390;28;20014;-61
2023/11/06 09:43:55;;;;;;;4.10;1.40;;;11.90;99.90;;;;;;4999518;28;20040;-61
2023/11/06 09:46:21;;;;;;;5.95;1.48;;;12.00;99.90;;;;;;4997121;28;20018;-61
2023/11/06 09:48:47;;;;;;;6.68;1.40;;;12.10;99.90;;;;;;4999228;28;20499;-61
2023/11/06 09:51:14;;;;;;;8.75;1.92;;;12.10;99.90;;;;;;4997557;28;20026;-61
2023/11/06 09:53:41;;;;;;;9.02;1.45;;;12.20;99.90;;;;;;4996970;28;20041;-61
2023/11/06 09:56:08;;;;;;;6.82;1.35;;;12.20;99.90;;;;;;4999043;28;20368;-60
2023/11/06 09:58:34;;;;;;;3.85;1.73;;;12.50;99.90;;;;;;5000654;28;20161;-60
2023/11/06 10:01:00;;;;;;;6.43;1.38;;;12.80;99.90;;;;;;5006962;28;20022;-60
2023/11/06 10:03:25;;;;;;;8.68;1.80;;;12.80;99.90;;;;;;5001377;28;20061;-61
2023/11/06 10:05:51;;;;;;;4.75;1.50;;;12.90;99.90;;;;;;5009025;28;20029;-60
2023/11/06 10:08:31;;;;;;;5.75;1.20;;;12.90;99.90;;;;;;5010648;28;20041;-60
2023/11/06 10:10:59;;;;;;;4.35;1.38;;;12.90;99.90;;;;;;5005567;28;20030;-60
2023/11/06 10:13:25;;;;;;;3.88;1.52;;;13.00;99.90;;;;;;5010305;28;20033;-60
2023/11/06 10:15:51;;;;;;;7.82;1.70;;;12.90;99.90;;;;;;4994641;28;20030;-60
2023/11/06 10:18:19;;;;;;;5.43;1.63;;;12.70;99.90;;;;;;5006804;28;20026;-60
2023/11/06 10:20:47;;;;;;;5.50;1.73;;;13.10;99.90;;;;;;5004304;28;20033;-60
2023/11/06 10:23:34;;;;;;;5.22;1.20;;;13.30;99.90;;;;;;5000009;28;20022;-60
2023/11/06 10:26:15;;;;;;;5.88;1.30;;;13.10;99.90;;;;;;5005412;28;20355;-60
2023/11/06 10:28:41;;;;;;;3.15;1.40;;;13.00;99.90;;;;;;5009766;28;20117;-60
2023/11/06 10:31:07;;;;;;;4.03;1.58;;;12.80;99.90;;;;;;5009111;28;20069;-61
2023/11/06 10:33:33;;;;;;;5.43;1.65;;;12.60;99.90;;;;;;4998946;28;20158;-61
2023/11/06 10:35:59;;;;;;;5.97;1.85;;;12.60;99.90;;;;;;5001099;28;20026;-61
2023/11/06 10:38:28;;;;;;;5.22;1.50;;;12.40;99.90;;;;;;5004702;28;20029;-61
2023/11/06 10:40:54;;;;;;;5.72;1.67;;;12.50;99.90;;;;;;4994568;28;20023;-61
2023/11/06 10:43:20;;;;;;;6.15;2.13;;;12.50;99.90;;;;;;4997926;28;20591;-60
2023/11/06 10:45:48;;;;;;;4.68;1.60;;;12.60;99.90;;;;;;4997137;28;20128;-60
2023/11/06 10:48:18;;;;;;;9.70;1.90;;;13.10;99.90;;;;;;5005692;28;20279;-61
2023/11/06 10:50:45;;;;;;;10.48;2.25;;;13.40;99.90;;;;;;5004349;28;20014;-61
2023/11/06 10:53:12;;;;;;;12.57;2.08;;;13.50;99.90;;;;;;5006900;28;20319;-61
2023/11/06 10:55:39;;;;;;;6.00;1.98;;;14.00;99.90;;;;;;5008868;28;20068;-61
2023/11/06 10:58:06;;;;;;;8.70;2.30;;;14.80;99.90;;;;;;5004768;28;20049;-61
2023/11/06 11:00:32;;;;;;;6.03;1.63;;;15.40;99.90;;;;;;5002669;28;20510;-61
2023/11/06 11:03:01;;;;;;;7.20;1.83;;;15.90;99.90;;;;;;5009799;28;20288;-61
2023/11/06 11:05:29;;;;;;;7.85;1.73;;;16.00;99.90;;;;;;5005368;28;20096;-61
2023/11/06 11:07:56;;;;;;;8.30;2.17;;;15.60;99.90;;;;;;5004421;28;20025;-59
2023/11/06 11:10:27;;;;;;;4.07;1.70;;;15.60;99.90;;;;;;4995402;28;20649;-60
2023/11/06 11:12:55;;;;;;;6.78;2.03;;;15.40;99.90;;;;;;4996900;28;20085;-59
2023/11/06 11:15:32;;;;;;;6.07;1.77;;;15.30;99.90;;;;;;4997389;28;20023;-60
2023/11/06 11:18:00;;;;;;;7.10;2.05;;;15.10;99.90;;;;;;5001736;28;20045;-59
2023/11/06 11:20:46;;;;;;;7.68;2.30;;;14.90;99.90;;;;;;5001828;28;20072;-58
2023/11/06 11:23:12;;;;;;;8.82;2.15;;;14.70;99.90;;;;;;4999299;28;20030;-58
2023/11/06 11:25:56;;;;;;;8.05;2.03;;;14.40;99.90;;;;;;5001921;28;20088;-58
2023/11/06 11:28:22;;;;;;;10.98;2.25;;;14.20;99.90;;;;;;5001548;28;20022;-58
2023/11/06 11:30:48;;;;;;;9.27;2.28;;;14.00;99.90;;;;;;5002314;28;20444;-58
2023/11/06 11:33:57;;;;;;;6.35;2.25;;;13.90;99.90;;;;;;5005510;28;20089;-58
2023/11/06 11:36:27;;;;;;;7.57;2.35;;;14.10;99.90;;;;;;5004734;28;20171;-58
2023/11/06 11:38:53;;;;;;;4.67;1.93;;;14.10;99.90;;;;;;5004704;28;20026;-59
2023/11/06 11:41:18;;;;;;;6.72;2.33;;;14.50;99.90;;;;;;5007009;28;20394;-58
2023/11/06 11:43:46;;;;;;;8.50;2.67;;;15.20;99.90;;;;;;5008479;28;20069;-58
2023/11/06 11:46:47;;;;;;;6.78;1.98;;;16.40;99.90;;;;;;5008138;28;20121;-58
2023/11/06 11:49:32;;;;;;;;;;;17.40;97.30;;;;;;5009297;28;20022;-58
2023/11/06 11:51:58;;;;;;;9.95;2.45;;;18.40;95.50;;;;;;5008567;28;19916;-57
2023/11/06 11:54:29;;;;;;;9.60;2.58;;;18.40;94.20;;;;;;5005888;28;20027;-59
2023/11/06 11:56:56;;;;;;;8.73;2.05;;;19.30;93.10;;;;;;5008644;28;20054;-58
2023/11/06 11:59:22;;;;;;;7.45;2.10;;;18.80;92.60;;;;;;4990152;28;20018;-58
2023/11/06 12:01:49;;;;;;;6.22;2.05;;;18.60;92.00;;;;;;4988753;28;20202;-57
2023/11/06 12:04:22;;;;;;;6.65;1.67;;;18.10;92.80;;;;;;4992595;28;20034;-58
2023/11/06 12:07:08;;;;;;;6.15;2.15;;;18.00;92.90;;;;;;5002968;28;20403;-58
2023/11/06 12:09:51;;;;;;;8.80;2.60;;;17.30;93.50;;;;;;5003402;28;20510;-58
2023/11/06 12:12:20;;;;;;;9.68;2.72;;;16.60;94.20;;;;;;4998847;28;20034;-58
2023/11/06 12:14:46;;;;;;;8.15;1.85;;;15.90;95.20;;;;;;5003125;28;20424;-58
2023/11/06 12:17:12;;;;;;;7.32;2.17;;;15.30;96.30;;;;;;5005744;28;20026;-58
2023/11/06 12:19:39;;;;;;;9.35;2.15;;;14.70;96.60;;;;;;5008610;28;20083;-59
2023/11/06 12:22:05;;;;;;;7.53;2.22;;;14.40;96.90;;;;;;5008564;28;20350;-59
2023/11/06 12:24:31;;;;;;;10.95;2.20;;;14.30;97.50;;;;;;5004376;28;20283;-59
2023/11/06 12:26:58;;;;;;;6.88;1.95;;;14.20;98.40;;;;;;5003832;28;20022;-59
2023/11/06 12:29:27;;;;;;;6.05;1.98;;;14.30;98.00;;;;;;5008354;28;20037;-59
2023/11/06 12:31:54;;;;;;;5.95;2.00;;;14.20;98.50;;;;;;5003930;28;20554;-59
2023/11/06 12:34:20;;;;;;;8.50;2.00;;;14.20;98.20;;;;;;5006355;28;20450;-59
2023/11/06 12:36:46;;;;;;;12.23;2.10;;;14.20;97.90;;;;;;5004128;28;20026;-59
2023/11/06 12:39:26;;;;;;;6.80;2.35;;;13.90;98.70;;;;;;5006128;28;20018;-59
2023/11/06 12:41:57;;;;;;;6.18;1.83;;;13.90;98.70;;;;;;5008076;28;20026;-59
2023/11/06 12:44:38;;;;;;;6.95;1.98;;;13.80;97.70;;;;;;5007368;28;20049;-59
2023/11/06 12:47:05;;;;;;;5.47;1.75;;;14.10;97.80;;;;;;5008317;28;20030;-59